Time;durP1;ratioP1;P1;durP2;ratioP2;P2;SDS_P1;SDS_P2;PMS_P1;PMS_P2;Temp;Humidity;BMP_temperature;BMP_pressure;BME280_temperature;BME280_humidity;BME280_pressure;Samples;Min_cycle;Max_cycle;Signal;HPM_P1;HPM_P2
2023/12/04 00:01:11;;;;;;;24.63;10.00;;;;;;;-145.18;100.00;46711.19;5020551;28;20282;-69
2023/12/04 00:03:37;;;;;;;29.47;10.50;;;;;;;-145.18;100.00;46713.13;5031597;28;20030;-69
2023/12/04 00:06:02;;;;;;;26.77;9.63;;;;;;;-145.18;100.00;46711.19;5020859;28;20108;-70
2023/12/04 00:08:27;;;;;;;22.53;9.10;;;;;;;-145.18;100.00;46711.19;5034531;28;20036;-70
2023/12/04 00:10:54;;;;;;;25.27;9.70;;;;;;;-145.18;100.00;46713.13;5007199;28;20111;-70
2023/12/04 00:13:19;;;;;;;24.00;10.33;;;;;;;-145.18;100.00;46713.13;5018648;28;20040;-69
2023/12/04 00:15:44;;;;;;;30.03;11.00;;;;;;;-145.18;100.00;46707.28;5034267;28;20258;-69
2023/12/04 00:18:10;;;;;;;25.67;11.17;;;;;;;-145.18;100.00;46709.22;5019926;28;20037;-70
2023/12/04 00:20:36;;;;;;;24.83;10.40;;;;;;;-145.18;100.00;46713.13;5023768;28;20109;-70
2023/12/04 00:23:02;;;;;;;18.77;9.07;;;;;;;-145.18;100.00;46711.19;5027155;28;20033;-70
2023/12/04 00:25:27;;;;;;;21.87;9.00;;;;;;;-145.18;100.00;46715.09;5024594;28;20279;-70
2023/12/04 00:27:53;;;;;;;21.10;9.33;;;;;;;-145.18;100.00;46711.19;5018199;28;20041;-69
2023/12/04 00:30:18;;;;;;;21.63;9.77;;;;;;;-145.18;100.00;46715.09;5030180;28;20031;-69
2023/12/04 00:32:44;;;;;;;21.87;9.47;;;;;;;-145.18;100.00;46715.09;5032595;28;20056;-70
2023/12/04 00:35:09;;;;;;;22.53;9.07;;;;;;;-145.18;100.00;46715.09;5029169;28;20029;-70
2023/12/04 00:37:38;;;;;;;25.77;10.40;;;;;;;-145.18;100.00;46713.13;5025657;28;20025;-69
2023/12/04 00:40:04;;;;;;;20.57;9.47;;;;;;;-145.18;100.00;46717.03;5018335;28;20108;-70
2023/12/04 00:42:29;;;;;;;23.17;8.90;;;;;;;-145.18;100.00;46715.09;5027906;28;20820;-69
2023/12/04 00:44:55;;;;;;;21.80;8.80;;;;;;;-145.18;100.00;46715.09;5025876;28;20485;-70
2023/12/04 00:47:21;;;;;;;21.60;9.07;;;;;;;-145.18;100.00;46713.13;5032832;28;20697;-69
2023/12/04 00:49:46;;;;;;;21.63;9.37;;;;;;;-145.18;100.00;46711.19;5034046;28;20044;-70
2023/12/04 00:52:11;;;;;;;24.37;9.47;;;;;;;-145.18;100.00;46711.19;5032377;28;20027;-69
2023/12/04 00:54:41;;;;;;;22.93;9.63;;;;;;;-145.18;100.00;46713.13;5026060;28;20082;-70
2023/12/04 00:57:07;;;;;;;24.30;10.10;;;;;;;-145.18;100.00;46713.13;5027686;28;20029;-69
2023/12/04 00:59:32;;;;;;;22.17;9.93;;;;;;;-145.18;100.00;46715.09;5026732;28;20266;-70
2023/12/04 01:01:58;;;;;;;24.00;9.67;;;;;;;-145.18;100.00;46715.09;5033151;28;20080;-69
2023/12/04 01:04:23;;;;;;;24.20;9.37;;;;;;;-145.18;100.00;46715.09;5032455;28;20108;-70
2023/12/04 01:06:48;;;;;;;21.30;9.67;;;;;;;-145.18;100.00;46717.03;5020710;28;20075;-70
2023/12/04 01:09:14;;;;;;;20.83;8.60;;;;;;;-145.18;100.00;46713.13;5043314;28;20033;-70
2023/12/04 01:11:39;;;;;;;21.33;9.50;;;;;;;-145.18;100.00;46715.09;5024039;28;20037;-69
2023/12/04 01:14:05;;;;;;;22.83;9.67;;;;;;;-145.18;100.00;46717.03;5031572;28;20116;-70
2023/12/04 01:16:30;;;;;;;23.33;9.60;;;;;;;-145.18;100.00;46711.19;5018085;28;20033;-69
2023/12/04 01:18:56;;;;;;;19.70;8.60;;;;;;;-145.18;100.00;46715.09;5024434;28;20057;-70
2023/12/04 01:21:21;;;;;;;21.83;9.73;;;;;;;-145.18;100.00;46717.03;5020922;28;20053;-69
2023/12/04 01:23:47;;;;;;;22.40;9.60;;;;;;;-145.18;100.00;46719.00;5020949;28;20484;-70
2023/12/04 01:26:12;;;;;;;20.87;9.43;;;;;;;-145.18;100.00;46717.03;5018737;28;20045;-69
2023/12/04 01:28:37;;;;;;;23.70;9.27;;;;;;;-145.18;100.00;46715.09;5022801;28;20041;-70
2023/12/04 01:31:03;;;;;;;19.87;9.00;;;;;;;-145.18;100.00;46719.00;5028878;28;20067;-70
2023/12/04 01:33:30;;;;;;;21.63;9.37;;;;;;;-145.18;100.00;46719.00;5025432;28;20056;-70
2023/12/04 01:35:55;;;;;;;22.03;8.93;;;;;;;-145.18;100.00;46713.13;5023358;28;20509;-70
2023/12/04 01:38:20;;;;;;;22.53;9.87;;;;;;;-145.18;100.00;46715.09;5033488;28;20270;-70
2023/12/04 01:40:46;;;;;;;24.07;9.97;;;;;;;-145.18;100.00;46717.03;5017994;28;20518;-69
2023/12/04 01:43:11;;;;;;;21.17;8.57;;;;;;;-145.18;100.00;46715.09;5016038;28;20045;-69
2023/12/04 01:45:36;;;;;;;17.90;8.53;;;;;;;-145.18;100.00;46717.03;5027693;28;20038;-69
2023/12/04 01:48:03;;;;;;;22.50;9.57;;;;;;;-145.18;100.00;46720.94;5020624;28;20065;-69
2023/12/04 01:50:29;;;;;;;21.87;9.47;;;;;;;-145.18;100.00;46720.94;4999226;28;20030;-70
2023/12/04 01:52:54;;;;;;;23.70;9.30;;;;;;;-145.18;100.00;46715.09;5021009;28;20667;-73
2023/12/04 01:55:21;;;;;;;23.53;10.10;;;;;;;-145.18;100.00;46719.00;5032590;28;20041;-74
2023/12/04 01:57:47;;;;;;;20.15;8.45;;;;;;;-145.18;100.00;46717.03;5025197;28;20424;-73
2023/12/04 02:00:14;;;;;;;20.80;8.73;;;;;;;-145.18;100.00;46717.03;5031792;28;20025;-73
2023/12/04 02:02:41;;;;;;;23.30;8.60;;;;;;;-145.18;100.00;46711.19;5032202;28;20259;-73
2023/12/04 02:05:08;;;;;;;18.03;8.00;;;;;;;-145.18;100.00;46719.00;5029263;28;20395;-73
2023/12/04 02:07:35;;;;;;;24.83;9.73;;;;;;;-145.18;100.00;46717.03;5032168;28;20277;-73
2023/12/04 02:10:01;;;;;;;22.80;10.40;;;;;;;-145.18;100.00;46719.00;5030319;28;20270;-74
2023/12/04 02:12:26;;;;;;;25.57;10.07;;;;;;;-145.18;100.00;46717.03;5025149;28;20741;-73
2023/12/04 02:14:52;;;;;;;19.60;9.13;;;;;;;-145.18;100.00;46715.09;5032013;28;20029;-73
2023/12/04 02:17:19;;;;;;;21.83;9.47;;;;;;;-145.18;100.00;46715.09;5029849;28;20039;-73
2023/12/04 02:19:44;;;;;;;21.07;9.00;;;;;;;-145.18;100.00;46713.13;5028079;28;20052;-73
2023/12/04 02:22:10;;;;;;;21.97;9.10;;;;;;;-145.18;100.00;46713.13;5026591;28;20283;-74
2023/12/04 02:24:36;;;;;;;17.37;8.40;;;;;;;-145.18;100.00;46719.00;5028972;28;20140;-73
2023/12/04 02:27:28;;;;;;;23.33;10.17;;;;;;;-145.18;100.00;46719.00;5024761;28;20464;-73
2023/12/04 02:29:59;;;;;;;20.43;8.57;;;;;;;-145.18;100.00;46715.09;5031427;28;20033;-74
2023/12/04 02:32:28;;;;;;;21.55;8.52;;;;;;;-145.18;100.00;46722.91;5029255;28;20266;-73
2023/12/04 02:34:55;;;;;;;24.02;8.55;;;;;;;-145.18;100.00;46720.94;5020350;28;20026;-73
2023/12/04 02:37:22;;;;;;;17.33;7.78;;;;;;;-145.18;100.00;46717.03;5018143;28;20514;-74
2023/12/04 02:39:49;;;;;;;16.07;7.67;;;;;;;-145.18;100.00;46715.09;5029339;28;20545;-73
2023/12/04 02:42:16;;;;;;;19.47;8.37;;;;;;;-145.18;100.00;46720.94;5027541;28;20258;-73
2023/12/04 02:44:42;;;;;;;20.10;8.40;;;;;;;-145.18;100.00;46717.03;5030670;28;20286;-73
2023/12/04 02:47:08;;;;;;;21.90;9.07;;;;;;;-145.18;100.00;46715.09;5030227;28;20458;-73
2023/12/04 02:49:33;;;;;;;20.30;7.67;;;;;;;-145.18;100.00;46720.94;5028502;28;20036;-73
2023/12/04 02:51:58;;;;;;;21.93;9.17;;;;;;;-145.18;100.00;46713.13;5027501;28;20506;-73
2023/12/04 02:54:24;;;;;;;19.27;8.27;;;;;;;-145.18;100.00;46722.91;5026900;28;20030;-73
2023/12/04 02:56:50;;;;;;;21.23;8.23;;;;;;;-145.18;100.00;46715.09;5027974;28;20542;-73
2023/12/04 02:59:15;;;;;;;21.37;8.63;;;;;;;-145.18;100.00;46720.94;5031349;28;20525;-73
2023/12/04 03:01:41;;;;;;;17.50;8.43;;;;;;;-145.18;100.00;46713.13;5026936;28;20295;-73
2023/12/04 03:04:06;;;;;;;22.97;8.93;;;;;;;-145.18;100.00;46722.91;5013779;28;20095;-73
2023/12/04 03:06:32;;;;;;;17.80;7.43;;;;;;;-145.18;100.00;46719.00;5027405;28;20053;-73
2023/12/04 03:08:59;;;;;;;17.07;8.00;;;;;;;-145.18;100.00;46719.00;5030343;28;20035;-74
2023/12/04 03:11:25;;;;;;;19.35;7.88;;;;;;;-145.18;100.00;46722.91;5027399;28;20026;-73
2023/12/04 03:13:50;;;;;;;24.53;8.07;;;;;;;-145.18;100.00;46719.00;5027020;28;20506;-73
2023/12/04 03:16:17;;;;;;;17.57;7.90;;;;;;;-145.18;100.00;46726.81;5035004;28;20456;-73
2023/12/04 03:18:42;;;;;;;15.83;7.03;;;;;;;-145.18;100.00;46724.84;5021288;28;20030;-73
2023/12/04 03:21:08;;;;;;;18.77;7.73;;;;;;;-145.18;100.00;46722.91;5031022;28;20282;-72
2023/12/04 03:23:33;;;;;;;16.97;7.30;;;;;;;-145.18;100.00;46722.91;5023376;28;20034;-73
2023/12/04 03:25:58;;;;;;;17.63;7.70;;;;;;;-145.18;100.00;46722.91;5004193;28;20032;-73
2023/12/04 03:28:24;;;;;;;16.60;7.23;;;;;;;-145.18;100.00;46724.84;5022739;28;20034;-73
2023/12/04 03:30:49;;;;;;;18.63;7.93;;;;;;;-145.18;100.00;46722.91;5025354;28;20480;-74
2023/12/04 03:33:14;;;;;;;16.13;7.33;;;;;;;-145.18;100.00;46724.84;5025672;28;20021;-73
2023/12/04 03:35:40;;;;;;;16.37;7.77;;;;;;;-145.18;100.00;46726.81;5019402;28;20056;-73
2023/12/04 03:38:05;;;;;;;15.07;7.33;;;;;;;-145.18;100.00;46734.63;5023625;28;20112;-73
2023/12/04 03:40:31;;;;;;;16.60;7.53;;;;;;;-145.18;100.00;46724.84;5015107;28;20037;-73
2023/12/04 03:42:56;;;;;;;15.60;7.67;;;;;;;-145.18;100.00;46726.81;5014474;28;20404;-73
2023/12/04 03:45:22;;;;;;;16.97;7.40;;;;;;;-145.18;100.00;46726.81;5023189;28;20037;-73
2023/12/04 03:47:47;;;;;;;16.27;7.47;;;;;;;-145.18;100.00;46726.81;5024113;28;20059;-73
2023/12/04 03:50:13;;;;;;;16.20;6.30;;;;;;;-145.18;100.00;46724.84;5020957;28;20082;-73
2023/12/04 03:52:38;;;;;;;16.50;7.73;;;;;;;-145.18;100.00;46728.75;5019078;28;20539;-73
2023/12/04 03:55:04;;;;;;;16.80;7.57;;;;;;;-145.18;100.00;46726.81;5028386;28;20018;-73
2023/12/04 03:57:30;;;;;;;14.50;7.13;;;;;;;-145.18;100.00;46724.84;5020034;28;20487;-73
2023/12/04 03:59:55;;;;;;;17.10;7.87;;;;;;;-145.18;100.00;46724.84;5019364;28;20025;-73
2023/12/04 04:02:20;;;;;;;16.17;7.70;;;;;;;-145.18;100.00;46728.75;5025279;28;20483;-73
2023/12/04 04:04:46;;;;;;;18.93;8.50;;;;;;;-145.18;100.00;46734.63;5025055;28;20107;-73
2023/12/04 04:07:11;;;;;;;16.57;7.30;;;;;;;-145.18;100.00;46732.66;5021530;28;20484;-73
2023/12/04 04:09:37;;;;;;;15.03;7.10;;;;;;;-145.18;100.00;46734.63;5019588;28;20029;-73
2023/12/04 04:12:02;;;;;;;15.87;7.90;;;;;;;-145.18;100.00;46726.81;5030160;28;20025;-73
2023/12/04 04:14:28;;;;;;;14.77;7.20;;;;;;;-145.18;100.00;46732.66;5029356;28;20021;-74
2023/12/04 04:16:53;;;;;;;19.90;8.10;;;;;;;-145.18;100.00;46734.63;5030466;28;20430;-73
2023/12/04 04:19:19;;;;;;;17.40;7.50;;;;;;;-145.18;100.00;46726.81;5034086;28;20037;-73
2023/12/04 04:21:44;;;;;;;16.63;7.20;;;;;;;-145.18;100.00;46732.66;5033821;28;20084;-74
2023/12/04 04:24:10;;;;;;;17.73;7.53;;;;;;;-145.18;100.00;46732.66;5034380;28;20060;-73
2023/12/04 04:26:35;;;;;;;17.40;7.07;;;;;;;-145.18;100.00;46740.47;5018979;28;20025;-73
2023/12/04 04:29:01;;;;;;;17.13;7.60;;;;;;;-145.18;100.00;46736.56;5032884;28;20071;-73
2023/12/04 04:31:26;;;;;;;20.50;8.23;;;;;;;-145.18;100.00;46732.66;5014177;28;20041;-73
2023/12/04 04:33:51;;;;;;;18.57;7.73;;;;;;;-145.18;100.00;46738.53;5031803;28;20029;-72
2023/12/04 04:36:17;;;;;;;16.97;7.10;;;;;;;-145.18;100.00;46736.56;5032491;28;20079;-73
2023/12/04 04:38:42;;;;;;;15.77;7.23;;;;;;;-145.18;100.00;46736.56;5010501;28;20064;-72
2023/12/04 04:41:13;;;;;;;16.83;7.30;;;;;;;-145.18;100.00;46740.47;5026099;28;20487;-72
2023/12/04 04:43:39;;;;;;;16.93;8.27;;;;;;;-145.18;100.00;46738.53;5022508;28;20143;-73
2023/12/04 04:46:04;;;;;;;18.07;7.60;;;;;;;-145.18;100.00;46740.47;5031909;28;20298;-72
2023/12/04 04:48:31;;;;;;;17.97;8.13;;;;;;;-145.18;100.00;46736.56;5030566;28;20033;-73
2023/12/04 04:50:56;;;;;;;18.75;7.80;;;;;;;-145.18;100.00;46738.53;5032184;28;20103;-73
2023/12/04 04:53:22;;;;;;;17.33;7.60;;;;;;;-145.18;100.00;46738.53;5025845;28;20484;-73
2023/12/04 04:55:47;;;;;;;15.00;5.93;;;;;;;-145.18;100.00;46740.47;5030807;28;20495;-73
2023/12/04 04:58:13;;;;;;;15.87;6.97;;;;;;;-145.18;100.00;46736.56;5028369;28;20025;-73
2023/12/04 05:00:38;;;;;;;14.30;6.47;;;;;;;-145.18;100.00;46738.53;5029443;28;20029;-72
2023/12/04 05:03:03;;;;;;;16.83;7.57;;;;;;;-145.18;100.00;46734.63;5019472;28;20041;-73
2023/12/04 05:05:29;;;;;;;15.77;7.40;;;;;;;-145.18;100.00;46738.53;5019558;28;20026;-72
2023/12/04 05:07:54;;;;;;;15.23;6.17;;;;;;;-145.18;100.00;46740.47;4999936;28;20404;-73
2023/12/04 05:10:19;;;;;;;13.23;5.43;;;;;;;-145.18;100.00;46740.47;5013625;28;20087;-73
2023/12/04 05:12:45;;;;;;;16.57;6.53;;;;;;;-145.18;100.00;46742.44;5026528;28;20044;-73
2023/12/04 05:15:10;;;;;;;19.27;6.70;;;;;;;-145.18;100.00;46740.47;5026516;28;20018;-73
2023/12/04 05:17:36;;;;;;;13.83;6.77;;;;;;;-145.18;100.00;46742.44;5030350;28;20044;-73
2023/12/04 05:20:01;;;;;;;14.90;6.67;;;;;;;-145.18;100.00;46742.44;5027788;28;20455;-73
2023/12/04 05:22:27;;;;;;;15.53;6.63;;;;;;;-145.18;100.00;46740.47;5012480;28;20050;-73
2023/12/04 05:24:52;;;;;;;13.63;6.40;;;;;;;-145.18;100.00;46736.56;5026299;28;20038;-73
2023/12/04 05:27:17;;;;;;;16.97;6.97;;;;;;;-145.18;100.00;46736.56;5024981;28;20504;-73
2023/12/04 05:29:43;;;;;;;15.73;6.73;;;;;;;-145.18;100.00;46740.47;5024052;28;20446;-73
2023/12/04 05:32:08;;;;;;;14.53;6.77;;;;;;;-145.18;100.00;46738.53;5030743;28;20032;-73
2023/12/04 05:34:33;;;;;;;16.93;7.37;;;;;;;-145.18;100.00;46742.44;5029548;28;20029;-73
2023/12/04 05:36:59;;;;;;;14.00;6.37;;;;;;;-145.18;100.00;46744.38;5028503;28;20033;-74
2023/12/04 05:39:25;;;;;;;15.50;6.87;;;;;;;-145.18;100.00;46742.44;5031275;28;20088;-73
2023/12/04 05:41:51;;;;;;;17.67;6.50;;;;;;;-145.18;100.00;46744.38;5030892;28;20029;-73
2023/12/04 05:44:16;;;;;;;13.27;6.53;;;;;;;-145.18;100.00;46742.44;5032925;28;20258;-73
2023/12/04 05:46:41;;;;;;;14.70;6.27;;;;;;;-145.18;100.00;46736.56;5012348;28;20018;-73
2023/12/04 05:49:07;;;;;;;16.80;6.90;;;;;;;-145.18;100.00;46734.63;5012698;28;20034;-73
2023/12/04 05:51:32;;;;;;;15.43;6.63;;;;;;;-145.18;100.00;46740.47;5027251;28;20029;-73
2023/12/04 05:53:58;;;;;;;14.67;7.23;;;;;;;-145.18;100.00;46738.53;5029204;28;20025;-74
2023/12/04 05:56:23;;;;;;;15.20;6.87;;;;;;;-145.18;100.00;46742.44;5029241;28;20035;-73
2023/12/04 05:58:48;;;;;;;13.47;6.70;;;;;;;-145.18;100.00;46738.53;5030944;28;20064;-73
2023/12/04 06:01:15;;;;;;;15.33;6.13;;;;;;;-145.18;100.00;46738.53;5030978;28;20052;-73
2023/12/04 06:03:40;;;;;;;16.67;7.20;;;;;;;-145.18;100.00;46734.63;5029913;28;20052;-73
2023/12/04 06:06:06;;;;;;;15.43;5.80;;;;;;;-145.18;100.00;46740.47;5029971;28;21044;-73
2023/12/04 06:08:31;;;;;;;15.40;6.37;;;;;;;-145.18;100.00;46736.56;5019862;28;20029;-74
2023/12/04 06:11:15;;;;;;;10.40;5.77;;;;;;;-145.18;100.00;46740.47;5031916;28;20487;-72
2023/12/04 06:13:40;;;;;;;14.20;7.07;;;;;;;-145.18;100.00;46738.53;5020447;28;20048;-73
2023/12/04 06:16:06;;;;;;;14.87;6.33;;;;;;;-145.18;100.00;46736.56;5032462;28;20267;-74
2023/12/04 06:18:31;;;;;;;15.90;6.67;;;;;;;-145.18;100.00;46738.53;5025907;28;20407;-73
2023/12/04 06:20:57;;;;;;;13.63;5.63;;;;;;;-145.18;100.00;46740.47;5014829;28;20038;-73
2023/12/04 06:23:22;;;;;;;13.93;6.27;;;;;;;-145.18;100.00;46742.44;5020216;28;20136;-74
2023/12/04 06:25:48;;;;;;;12.93;6.40;;;;;;;-145.18;100.00;46742.44;5020032;28;20510;-73
2023/12/04 06:28:14;;;;;;;12.50;6.37;;;;;;;-145.18;100.00;46738.53;5021161;28;20038;-73
2023/12/04 06:30:39;;;;;;;14.47;6.30;;;;;;;-145.18;100.00;46742.44;5025295;28;20037;-73
2023/12/04 06:33:05;;;;;;;13.23;6.53;;;;;;;-145.18;100.00;46740.47;5015736;28;20524;-74
2023/12/04 06:35:31;;;;;;;12.20;6.20;;;;;;;-145.18;100.00;46746.34;5029205;28;20029;-74
2023/12/04 06:38:03;;;;;;;14.50;6.73;;;;;;;-145.18;100.00;46742.44;5019953;28;20472;-74
2023/12/04 06:40:28;;;;;;;14.50;6.60;;;;;;;-145.18;100.00;46742.44;5023426;28;20029;-74
2023/12/04 06:42:54;;;;;;;15.17;6.83;;;;;;;-145.18;100.00;46740.47;5016436;28;20851;-74
2023/12/04 06:45:20;;;;;;;13.67;6.23;;;;;;;-145.18;100.00;46746.34;5026787;28;20546;-74
2023/12/04 06:47:49;;;;;;;13.10;6.97;;;;;;;-145.18;100.00;46742.44;5016936;28;20120;-74
2023/12/04 06:50:14;;;;;;;12.40;6.30;;;;;;;-145.18;100.00;46740.47;5017003;28;20537;-73
2023/12/04 06:52:40;;;;;;;15.10;6.33;;;;;;;-145.18;100.00;46742.44;5019163;28;20274;-74
2023/12/04 06:55:06;;;;;;;13.30;6.90;;;;;;;-145.18;100.00;46742.44;5024849;28;20030;-74
2023/12/04 06:57:32;;;;;;;12.77;7.10;;;;;;;-145.18;100.00;46742.44;5015673;28;20030;-74
2023/12/04 06:59:57;;;;;;;15.47;7.43;;;;;;;-145.18;100.00;46742.44;5026032;28;20258;-74
2023/12/04 07:02:22;;;;;;;15.80;7.73;;;;;;;-145.18;100.00;46740.47;5022863;28;20034;-74
2023/12/04 07:04:48;;;;;;;13.07;7.17;;;;;;;-145.18;100.00;46742.44;5020065;28;20037;-74
2023/12/04 07:07:13;;;;;;;14.30;7.23;;;;;;;-145.18;100.00;46746.34;5018644;28;20061;-73
2023/12/04 07:09:39;;;;;;;14.47;7.10;;;;;;;-145.18;100.00;46742.44;5015334;28;20470;-73
2023/12/04 07:12:05;;;;;;;13.30;6.97;;;;;;;-145.18;100.00;46744.38;5015531;28;20116;-73
2023/12/04 07:14:30;;;;;;;14.97;7.43;;;;;;;-145.18;100.00;46742.44;5018798;28;20029;-73
2023/12/04 07:16:56;;;;;;;17.30;7.47;;;;;;;-145.18;100.00;46740.47;5029890;28;20294;-74
2023/12/04 07:19:22;;;;;;;13.90;6.40;;;;;;;-145.18;100.00;46740.47;5030708;28;20476;-73
2023/12/04 07:21:48;;;;;;;13.23;7.10;;;;;;;-145.18;100.00;46744.38;5020796;28;20530;-73
2023/12/04 07:24:13;;;;;;;22.03;9.20;;;;;;;-145.18;100.00;46742.44;5031483;28;20254;-74
2023/12/04 07:26:38;;;;;;;29.37;10.20;;;;;;;-145.18;100.00;46742.44;5030790;28;20470;-73
2023/12/04 07:29:04;;;;;;;28.07;10.50;;;;;;;-145.18;100.00;46732.66;5021449;28;20068;-74
2023/12/04 07:31:29;;;;;;;31.90;9.93;;;;;;;-145.18;100.00;46738.53;5024613;28;20398;-74
2023/12/04 07:33:55;;;;;;;29.63;9.23;;;;;;;-145.18;100.00;46738.53;5027523;28;20067;-74
2023/12/04 07:36:21;;;;;;;17.43;7.53;;;;;;;-145.18;100.00;46744.38;5030856;28;20034;-74
2023/12/04 07:38:47;;;;;;;20.10;7.63;;;;;;;-145.18;100.00;46738.53;5027681;28;20329;-73
2023/12/04 07:41:13;;;;;;;15.60;7.13;;;;;;;-145.18;100.00;46738.53;5014277;28;20026;-73
2023/12/04 07:43:39;;;;;;;13.23;6.50;;;;;;;-145.18;100.00;46740.47;5031496;28;20036;-73
2023/12/04 07:46:04;;;;;;;12.40;6.60;;;;;;;-145.18;100.00;46738.53;5026658;28;20692;-74
2023/12/04 07:48:30;;;;;;;11.80;6.23;;;;;;;-145.18;100.00;46732.66;5030063;28;20056;-73
2023/12/04 07:50:56;;;;;;;15.23;7.43;;;;;;;-145.18;100.00;46742.44;5032753;28;20026;-73
2023/12/04 07:53:22;;;;;;;13.07;6.73;;;;;;;-145.18;100.00;46746.34;5025373;28;20033;-73
2023/12/04 07:55:49;;;;;;;17.83;7.20;;;;;;;-145.18;100.00;46740.47;5028190;28;20018;-74
2023/12/04 07:58:15;;;;;;;18.00;7.53;;;;;;;-145.18;100.00;46740.47;5024288;28;20255;-73
2023/12/04 08:00:40;;;;;;;23.43;8.07;;;;;;;-145.18;100.00;46742.44;5021165;28;20264;-73
2023/12/04 08:03:06;;;;;;;16.13;6.43;;;;;;;-145.18;100.00;46744.38;5021480;28;20749;-73
2023/12/04 08:05:32;;;;;;;13.80;6.17;;;;;;;-145.18;100.00;46738.53;5022241;28;20038;-74
2023/12/04 08:07:57;;;;;;;12.13;5.60;;;;;;;-145.18;100.00;46746.34;5015491;28;20797;-74
2023/12/04 08:10:23;;;;;;;12.07;5.30;;;;;;;-145.18;100.00;46738.53;5032227;28;20045;-74
2023/12/04 08:12:48;;;;;;;11.63;5.40;;;;;;;-145.18;100.00;46728.75;5022128;28;20484;-74
2023/12/04 08:15:14;;;;;;;14.90;6.33;;;;;;;-145.18;100.00;46715.09;5016341;28;20030;-73
2023/12/04 08:17:40;;;;;;;10.53;4.97;;;;;;;-145.18;100.00;46699.47;5022172;28;20021;-73
2023/12/04 08:20:06;;;;;;;9.70;5.07;;;;;;;-145.18;100.00;46677.97;5033974;28;20076;-74
2023/12/04 08:22:31;;;;;;;11.07;5.40;;;;;;;-145.18;100.00;46662.34;5021993;28;20045;-74
2023/12/04 08:24:58;;;;;;;11.73;5.50;;;;;;;-145.18;100.00;46646.72;5022374;28;20319;-73
2023/12/04 08:27:24;;;;;;;9.50;5.63;;;;;;;-145.18;100.00;46660.41;5015525;28;20553;-74
2023/12/04 08:29:49;;;;;;;10.07;5.27;;;;;;;-145.18;100.00;46660.41;5016343;28;20657;-74
2023/12/04 08:32:15;;;;;;;9.27;5.10;;;;;;;-145.18;100.00;46654.53;5024926;28;20276;-73
2023/12/04 08:34:40;;;;;;;10.17;5.20;;;;;;;-145.18;100.00;46642.81;5015290;28;20099;-73
2023/12/04 08:37:06;;;;;;;13.37;5.90;;;;;;;-145.18;100.00;46652.59;5018371;28;20048;-73
2023/12/04 08:39:31;;;;;;;11.73;5.63;;;;;;;-145.18;100.00;46638.91;5027897;28;20651;-73
2023/12/04 08:41:57;;;;;;;13.90;5.57;;;;;;;-145.18;100.00;46640.88;5017306;28;20097;-73
2023/12/04 08:44:23;;;;;;;10.00;5.20;;;;;;;-145.18;100.00;46638.91;5020748;28;20444;-73
2023/12/04 08:46:49;;;;;;;11.93;5.20;;;;;;;-145.18;100.00;46633.06;5026982;28;20034;-74
2023/12/04 08:49:14;;;;;;;9.67;5.07;;;;;;;-145.18;100.00;46636.94;5021833;28;20326;-73
2023/12/04 08:51:40;;;;;;;9.43;4.93;;;;;;;-145.18;100.00;46638.91;5033513;28;20071;-73
2023/12/04 08:54:07;;;;;;;9.53;5.20;;;;;;;-145.18;100.00;46636.94;5030766;28;20033;-73
2023/12/04 08:56:32;;;;;;;11.90;5.30;;;;;;;-145.18;100.00;46636.94;5031498;28;20029;-73
2023/12/04 08:58:57;;;;;;;10.60;5.20;;;;;;;-145.18;100.00;46633.06;5033326;28;20294;-73
2023/12/04 09:01:23;;;;;;;9.30;4.73;;;;;;;-145.18;100.00;46636.94;5028036;28;20026;-73
2023/12/04 09:03:48;;;;;;;12.27;4.77;;;;;;;-145.18;100.00;46635.00;5023271;28;20029;-73
2023/12/04 09:06:15;;;;;;;9.17;4.67;;;;;;;-145.18;100.00;46640.88;5029433;28;20108;-74
2023/12/04 09:08:41;;;;;;;11.23;4.90;;;;;;;-145.18;100.00;46642.81;5027159;28;20029;-74
2023/12/04 09:11:06;;;;;;;10.03;4.63;;;;;;;-145.18;100.00;46636.94;5032686;28;20300;-73
2023/12/04 09:13:33;;;;;;;9.73;4.30;;;;;;;-145.18;100.00;46654.53;5030979;28;20462;-73
2023/12/04 09:15:59;;;;;;;9.53;5.13;;;;;;;-145.18;100.00;46656.50;5028616;28;20017;-74
2023/12/04 09:18:25;;;;;;;9.70;5.10;;;;;;;-145.18;100.00;46617.41;5020119;28;20267;-73
2023/12/04 09:20:50;;;;;;;8.93;4.73;;;;;;;-145.18;100.00;46625.22;5023415;28;20065;-73
2023/12/04 09:23:15;;;;;;;11.87;4.93;;;;;;;-145.18;100.00;46625.22;5029966;28;20049;-74
2023/12/04 09:25:41;;;;;;;8.60;4.87;;;;;;;-145.18;100.00;46613.50;5027624;28;20037;-73
2023/12/04 09:28:07;;;;;;;9.07;4.73;;;;;;;-145.18;100.00;46627.19;5031321;28;20414;-73
2023/12/04 09:30:35;;;;;;;10.00;5.33;;;;;;;-145.18;100.00;46621.31;5025508;28;20033;-74
2023/12/04 09:33:00;;;;;;;9.53;4.70;;;;;;;-145.18;100.00;46625.22;5028039;28;20358;-73
2023/12/04 09:35:26;;;;;;;9.80;4.80;;;;;;;-145.18;100.00;46621.31;5027880;28;20345;-73
2023/12/04 09:37:51;;;;;;;10.10;5.00;;;;;;;-145.18;100.00;46625.22;5025321;28;20411;-73
2023/12/04 09:40:17;;;;;;;6.63;4.13;;;;;;;-145.18;100.00;46635.00;5020380;28;20037;-74
2023/12/04 09:42:42;;;;;;;9.53;4.83;;;;;;;-145.18;100.00;46627.19;5026044;28;20438;-74
2023/12/04 09:45:09;;;;;;;8.97;4.80;;;;;;;-145.18;100.00;46631.09;5028537;28;20434;-74
2023/12/04 09:47:35;;;;;;;11.50;4.83;;;;;;;-145.18;100.00;46625.22;5027291;28;20029;-73
2023/12/04 09:50:00;;;;;;;9.30;5.17;;;;;;;-145.18;100.00;46635.00;5028861;28;21267;-73
2023/12/04 09:52:27;;;;;;;8.40;4.87;;;;;;;-145.18;100.00;46640.88;5029025;28;20121;-74
2023/12/04 09:54:52;;;;;;;9.90;4.70;;;;;;;-145.18;100.00;46633.06;5028300;28;20052;-72
2023/12/04 09:57:18;;;;;;;10.17;5.10;;;;;;;-145.18;100.00;46633.06;5027843;28;20267;-73
2023/12/04 09:59:45;;;;;;;7.30;4.20;;;;;;;-145.18;100.00;46644.78;5029298;28;20423;-73
2023/12/04 10:02:11;;;;;;;7.50;4.37;;;;;;;-145.18;100.00;46636.94;5026851;28;20091;-73
2023/12/04 10:04:37;;;;;;;8.93;5.43;;;;;;;-145.18;100.00;46627.19;5024356;28;20921;-74
2023/12/04 10:07:03;;;;;;;7.73;4.67;;;;;;;-145.18;100.00;46644.78;5027298;28;20313;-74
2023/12/04 10:09:28;;;;;;;11.60;5.63;;;;;;;-145.18;100.00;46625.22;5028296;28;20529;-73
2023/12/04 10:11:56;;;;;;;10.43;5.00;;;;;;;-145.18;100.00;46633.06;5027331;28;20314;-74
2023/12/04 10:14:22;;;;;;;8.23;4.57;;;;;;;-145.18;100.00;46629.13;5027474;28;20051;-74
2023/12/04 10:16:49;;;;;;;9.53;4.20;;;;;;;-145.18;100.00;46633.06;5028324;28;20315;-74
2023/12/04 10:19:21;;;;;;;7.13;4.57;;;;;;;-145.18;100.00;46633.06;5026038;28;20042;-74
2023/12/04 10:21:48;;;;;;;10.80;5.17;;;;;;;-145.18;100.00;46640.88;5027859;28;20283;-74
2023/12/04 10:24:39;;;;;;;7.83;4.57;;;;;;;-145.18;100.00;46636.94;5028311;28;21068;-73
2023/12/04 10:27:11;;;;;;;9.47;5.23;;;;;;;-145.18;100.00;46638.91;5028160;28;21275;-74
2023/12/04 10:29:47;;;;;;;12.00;5.07;;;;;;;-145.18;100.00;46636.94;5026536;28;21155;-73
2023/12/04 10:32:13;;;;;;;9.77;4.83;;;;;;;-145.18;100.00;46623.28;5027243;28;20285;-74
2023/12/04 10:34:42;;;;;;;11.93;5.63;;;;;;;-145.18;100.00;46633.06;5027873;28;20287;-74
2023/12/04 10:37:10;;;;;;;12.70;5.93;;;;;;;-145.18;100.00;46627.19;5026665;28;20041;-74
2023/12/04 10:39:49;;;;;;;14.87;6.47;;;;;;;-145.18;100.00;46629.13;5027295;28;20282;-74
2023/12/04 10:42:30;;;;;;;11.83;5.63;;;;;;;-145.18;100.00;46631.09;5026153;28;21563;-74
2023/12/04 10:44:57;;;;;;;13.70;5.70;;;;;;;-145.18;100.00;46642.81;5027631;28;20274;-74
2023/12/04 10:47:23;;;;;;;11.80;5.37;;;;;;;-145.18;100.00;46629.13;5026274;28;20278;-74
2023/12/04 10:49:52;;;;;;;13.00;5.40;;;;;;;-145.18;100.00;46633.06;5027397;28;20274;-74
2023/12/04 10:52:21;;;;;;;12.57;5.83;;;;;;;-145.18;100.00;46633.06;5024832;28;20037;-74
2023/12/04 10:54:50;;;;;;;14.47;5.43;;;;;;;-145.18;100.00;46638.91;5026785;28;20267;-73
2023/12/04 10:57:22;;;;;;;16.73;6.00;;;;;;;-145.18;100.00;46640.88;5026849;28;20277;-73